Mir — UFPV — position and weather

sailwx.info

Track history (hours):
 
Tides and Currents Weather Stations Pressure Air Temp Water Temp Dewpoint Dewpoint Depression Visibility Wind Speed Wind Dir Waves Ship Positions

Mir (Russia)

Last reported at 2017-Jun-23 01:29 UTC. Time now 2017-Jun-23 01:33 UTC.
Position N 52°57' E 004°47'.

Length 109 m; draft 6.4 m.

Type: Sailing vessel. MMSI: 273133800.

Date/timePositionNaut miles runAvg speedWind from/ knotsBaromVisibWave heightAir tempDewpointWater temp
2017-Jun-23 01:29N 52°57' E 004°47'0 0.0
2017-Jun-23 00:50N 52°57' E 004°47'0 0.0
2017-Jun-23 00:29N 52°57' E 004°47'0 0.0
2017-Jun-22 23:56N 52°57' E 004°47'0 0.0
2017-Jun-22 23:29N 52°57' E 004°47'0 0.0
2017-Jun-22 22:59N 52°57' E 004°47'0 0.0
2017-Jun-22 22:26N 52°57' E 004°47'0 0.0
2017-Jun-22 21:59N 52°57' E 004°47'0 0.0
2017-Jun-22 21:29N 52°57' E 004°47'0 0.0
2017-Jun-22 20:59N 52°57' E 004°47'0 0.0
2017-Jun-22 20:29N 52°57' E 004°47'0 0.0
2017-Jun-22 19:56N 52°57' E 004°47'0 0.0
2017-Jun-22 19:28N 52°57' E 004°47'0 0.0
2017-Jun-22 18:58N 52°57' E 004°47'0 0.0
2017-Jun-22 18:28N 52°57' E 004°47'0 0.0
2017-Jun-22 17:58N 52°57' E 004°47'0 0.0
2017-Jun-22 17:28N 52°57' E 004°47'0 0.0
2017-Jun-22 16:55N 52°57' E 004°47'0 0.0
2017-Jun-22 16:28N 52°57' E 004°47'0 0.0
2017-Jun-22 15:58N 52°57' E 004°47'0 0.4
2017-Jun-22 15:30N 52°58' E 004°47'2 4.4
2017-Jun-22 15:00N 52°60' E 004°48'1 2.4
2017-Jun-22 14:30N 53°01' E 004°49'0 0.1
2017-Jun-22 13:30N 53°01' E 004°49'0 0.0
2017-Jun-22 13:00N 53°01' E 004°49'0 0.0
2017-Jun-22 12:30N 53°01' E 004°49'0 0.2
2017-Jun-22 12:00N 53°01' E 004°49'0 0.1
2017-Jun-22 11:25N 53°01' E 004°49'0 0.1
2017-Jun-22 10:55N 53°01' E 004°49'0 0.0
2017-Jun-22 10:25N 53°01' E 004°49'0 0.2
2017-Jun-22 09:58N 53°01' E 004°49'0 0.1
2017-Jun-22 09:28N 53°01' E 004°49'0 0.2
2017-Jun-22 08:58N 53°01' E 004°49'0 0.1
2017-Jun-22 08:28N 53°01' E 004°49'0 0.0
2017-Jun-22 07:58N 53°01' E 004°49'0 0.2
2017-Jun-22 07:28N 53°01' E 004°49'0 0.2
2017-Jun-22 06:55N 53°01' E 004°49'0 0.2
2017-Jun-22 06:30N 53°01' E 004°49'1 1.1
2017-Jun-22 06:00N 53°01' E 004°50'3 6.3
2017-Jun-22 05:30N 52°59' E 004°45'3 5.1
2017-Jun-22 05:01N 52°57' E 004°42'3 5.1
2017-Jun-22 04:31N 52°55' E 004°40'3 5.3
2017-Jun-22 04:00N 52°53' E 004°38'2 4.7
2017-Jun-22 03:31N 52°51' E 004°35'2 4.6
2017-Jun-22 03:00N 52°50' E 004°32'2 4.5
2017-Jun-22 02:30N 52°49' E 004°29'2 4.5
2017-Jun-22 02:00N 52°47' E 004°26'2 4.2
2017-Jun-22 01:30N 52°46' E 004°23'2 4.2
2017-Jun-22 01:00N 52°45' E 004°20'2 4.4
2017-Jun-22 00:30N 52°44' E 004°17'2 4.5
2017-Jun-22 00:00N 52°43' E 004°14'3 4.2
2017-Jun-21 23:15N 52°42' E 004°09'2 4.8
2017-Jun-21 22:56N 52°43' E 004°07'2 4.6
2017-Jun-21 22:30N 52°45' E 004°04'3 4.2
2017-Jun-21 21:54N 52°46' E 004°01'3 4.4
2017-Jun-21 21:14N 52°49' E 003°58'1 4.5
2017-Jun-21 21:00N 52°50' E 003°58'2 4.5
2017-Jun-21 20:30N 52°52' E 003°58'2 4.7
2017-Jun-21 20:00N 52°54' E 003°59'17 4.9
2017-Jun-21 16:30N 53°07' E 004°18'3 5.9
2017-Jun-21 15:59N 53°09' E 004°21'3 5.2
2017-Jun-21 15:25N 53°12' E 004°24'3 4.9
2017-Jun-21 14:50N 53°15' E 004°26'10 4.9
2017-Jun-21 12:47N 53°24' E 004°32'7 4.4
2017-Jun-21 11:18N 53°30' E 004°35'2 4.9
2017-Jun-21 10:56N 53°32' E 004°36'3 5.0
2017-Jun-21 10:19N 53°35' E 004°38'2 5.2
2017-Jun-21 09:51N 53°37' E 004°39'2 5.2
2017-Jun-21 09:22N 53°39' E 004°41'34 5.0
2017-Jun-21 02:31N 54°12' E 004°54'0 5.4
2017-Jun-21 02:29N 54°13' E 004°54'3 5.4
2017-Jun-21 01:59N 54°15' E 004°52'3 5.3
2017-Jun-21 01:29N 54°17' E 004°49'3 5.3
2017-Jun-21 00:55N 54°19' E 004°45'20 0.7
2017-Jun-19 17:59N 54°38' E 004°36'0 0.6
2017-Jun-19 17:30N 54°38' E 004°35'0 0.6
2017-Jun-19 17:00N 54°38' E 004°35'0 0.7
2017-Jun-19 16:30N 54°38' E 004°35'0 0.8
2017-Jun-19 15:58N 54°37' E 004°34'0 0.7
2017-Jun-19 15:28N 54°37' E 004°33'1 0.7
2017-Jun-19 14:42N 54°37' E 004°33'0 0.8
2017-Jun-19 14:29N 54°37' E 004°33'1 0.7
2017-Jun-19 13:24N 54°36' E 004°32'0 0.6
2017-Jun-19 12:50N 54°36' E 004°32'0 0.4
2017-Jun-19 12:29N 54°35' E 004°32'0 0.4
2017-Jun-19 11:45N 54°35' E 004°32'13 0.3
2017-Jun-17 16:54N 54°22' E 004°29'5 1.1
2017-Jun-17 12:26N 54°20' E 004°37'1 3.0
2017-Jun-17 11:59N 54°21' E 004°38'2 3.2
2017-Jun-17 11:16N 54°23' E 004°40'1 2.6
2017-Jun-17 10:46N 54°24' E 004°41'1 2.3
2017-Jun-17 10:29N 54°25' E 004°42'1 2.1
2017-Jun-17 09:59N 54°26' E 004°43'119 3.0
2017-Jun-15 17:54N 56°08' E 006°29'3 2.1
2017-Jun-15 16:39N 56°10' E 006°33'1 3.5
2017-Jun-15 16:29N 56°10' E 006°34'2 3.7
2017-Jun-15 16:01N 56°11' E 006°36'2 4.0
2017-Jun-15 15:30N 56°13' E 006°38'2 3.8
2017-Jun-15 15:00N 56°15' E 006°40'2 3.9
2017-Jun-15 14:27N 56°17' E 006°42'5 5.4
2017-Jun-15 13:29N 56°21' E 006°47'3 5.8
2017-Jun-15 12:56N 56°23' E 006°50'2 5.1
2017-Jun-15 12:27N 56°25' E 006°54'3 5.3
2017-Jun-15 11:53N 56°26' E 006°58'22 0.9
2017-Jun-14 12:13N 56°47' E 007°12'0 0.5
2017-Jun-14 11:59N 56°47' E 007°12'0 0.5
2017-Jun-14 11:23N 56°47' E 007°11'0 0.6
2017-Jun-14 11:00N 56°47' E 007°11'0 0.6
2017-Jun-14 10:30N 56°47' E 007°10'0 0.5
2017-Jun-14 09:59N 56°47' E 007°10'80 4.8
2017-Jun-13 17:10N 57°52' E 008°37'2 5.4
2017-Jun-13 16:50N 57°53' E 008°39'2 5.2
2017-Jun-13 16:30N 57°55' E 008°40'2 4.9
2017-Jun-13 16:00N 57°57' E 008°43'2 4.8
2017-Jun-13 15:30N 57°59' E 008°45'2 3.9
2017-Jun-13 15:00N 58°01' E 008°47'4 3.7
2017-Jun-13 14:00N 58°03' E 008°52'2 3.8
2017-Jun-13 13:30N 58°05' E 008°54'2 3.7
2017-Jun-13 12:59N 58°06' E 008°56'2 3.9
2017-Jun-13 12:30N 58°08' E 008°58'2 4.3
2017-Jun-13 12:00N 58°09' E 009°01'2 4.5
2017-Jun-13 11:29N 58°11' E 009°04'28 5.2
2017-Jun-13 06:09N 58°32' E 009°40'1 5.4
2017-Jun-13 06:00N 58°32' E 009°41'2 4.8
2017-Jun-13 05:31N 58°34' E 009°44'2 3.1
2017-Jun-13 04:53N 58°34' E 009°48'1 3.4
2017-Jun-13 04:27N 58°33' E 009°49'2 3.2
2017-Jun-13 03:55N 58°32' E 009°51'1 3.3
2017-Jun-13 03:30N 58°30' E 009°52'2 3.2
2017-Jun-13 03:00N 58°29' E 009°53'2 3.1
2017-Jun-13 02:23N 58°27' E 009°54'1 3.7
2017-Jun-13 02:01N 58°26' E 009°55'2 4.7
2017-Jun-13 01:30N 58°24' E 009°58'  
Track history (hours):
 
Tides and Currents Weather Stations Pressure Air Temp Water Temp Dewpoint Dewpoint Depression Visibility Wind Speed Wind Dir Waves Ship Positions

Mir (Russia)

Last reported at 2017-Jun-23 01:29 UTC. Time now 2017-Jun-23 01:33 UTC.
Position N 52°57' E 004°47'.

Length 109 m; draft 6.4 m.

Type: Sailing vessel. MMSI: 273133800.

Date/timePositionNaut miles runAvg speedWind from/ knotsBaromVisibWave heightAir tempDewpointWater temp
2017-Jun-23 01:29N 52°57' E 004°47'0 0.0
2017-Jun-23 00:50N 52°57' E 004°47'0 0.0
2017-Jun-23 00:29N 52°57' E 004°47'0 0.0
2017-Jun-22 23:56N 52°57' E 004°47'0 0.0
2017-Jun-22 23:29N 52°57' E 004°47'0 0.0
2017-Jun-22 22:59N 52°57' E 004°47'0 0.0
2017-Jun-22 22:26N 52°57' E 004°47'0 0.0
2017-Jun-22 21:59N 52°57' E 004°47'0 0.0
2017-Jun-22 21:29N 52°57' E 004°47'0 0.0
2017-Jun-22 20:59N 52°57' E 004°47'0 0.0
2017-Jun-22 20:29N 52°57' E 004°47'0 0.0
2017-Jun-22 19:56N 52°57' E 004°47'0 0.0
2017-Jun-22 19:28N 52°57' E 004°47'0 0.0
2017-Jun-22 18:58N 52°57' E 004°47'0 0.0
2017-Jun-22 18:28N 52°57' E 004°47'0 0.0
2017-Jun-22 17:58N 52°57' E 004°47'0 0.0
2017-Jun-22 17:28N 52°57' E 004°47'0 0.0
2017-Jun-22 16:55N 52°57' E 004°47'0 0.0
2017-Jun-22 16:28N 52°57' E 004°47'0 0.0
2017-Jun-22 15:58N 52°57' E 004°47'0 0.4
2017-Jun-22 15:30N 52°58' E 004°47'2 4.4
2017-Jun-22 15:00N 52°60' E 004°48'1 2.4
2017-Jun-22 14:30N 53°01' E 004°49'0 0.1
2017-Jun-22 13:30N 53°01' E 004°49'0 0.0
2017-Jun-22 13:00N 53°01' E 004°49'0 0.0
2017-Jun-22 12:30N 53°01' E 004°49'0 0.2
2017-Jun-22 12:00N 53°01' E 004°49'0 0.1
2017-Jun-22 11:25N 53°01' E 004°49'0 0.1
2017-Jun-22 10:55N 53°01' E 004°49'0 0.0
2017-Jun-22 10:25N 53°01' E 004°49'0 0.2
2017-Jun-22 09:58N 53°01' E 004°49'0 0.1
2017-Jun-22 09:28N 53°01' E 004°49'0 0.2
2017-Jun-22 08:58N 53°01' E 004°49'0 0.1
2017-Jun-22 08:28N 53°01' E 004°49'0 0.0
2017-Jun-22 07:58N 53°01' E 004°49'0 0.2
2017-Jun-22 07:28N 53°01' E 004°49'0 0.2
2017-Jun-22 06:55N 53°01' E 004°49'0 0.2
2017-Jun-22 06:30N 53°01' E 004°49'1 1.1
2017-Jun-22 06:00N 53°01' E 004°50'3 6.3
2017-Jun-22 05:30N 52°59' E 004°45'3 5.1
2017-Jun-22 05:01N 52°57' E 004°42'3 5.1
2017-Jun-22 04:31N 52°55' E 004°40'3 5.3
2017-Jun-22 04:00N 52°53' E 004°38'2 4.7
2017-Jun-22 03:31N 52°51' E 004°35'2 4.6
2017-Jun-22 03:00N 52°50' E 004°32'2 4.5
2017-Jun-22 02:30N 52°49' E 004°29'2 4.5
2017-Jun-22 02:00N 52°47' E 004°26'2 4.2
2017-Jun-22 01:30N 52°46' E 004°23'2 4.2
2017-Jun-22 01:00N 52°45' E 004°20'2 4.4
2017-Jun-22 00:30N 52°44' E 004°17'2 4.5
2017-Jun-22 00:00N 52°43' E 004°14'3 4.2
2017-Jun-21 23:15N 52°42' E 004°09'2 4.8
2017-Jun-21 22:56N 52°43' E 004°07'2 4.6
2017-Jun-21 22:30N 52°45' E 004°04'3 4.2
2017-Jun-21 21:54N 52°46' E 004°01'3 4.4
2017-Jun-21 21:14N 52°49' E 003°58'1 4.5
2017-Jun-21 21:00N 52°50' E 003°58'2 4.5
2017-Jun-21 20:30N 52°52' E 003°58'2 4.7
2017-Jun-21 20:00N 52°54' E 003°59'17 4.9
2017-Jun-21 16:30N 53°07' E 004°18'3 5.9
2017-Jun-21 15:59N 53°09' E 004°21'3 5.2
2017-Jun-21 15:25N 53°12' E 004°24'3 4.9
2017-Jun-21 14:50N 53°15' E 004°26'10 4.9
2017-Jun-21 12:47N 53°24' E 004°32'7 4.4
2017-Jun-21 11:18N 53°30' E 004°35'2 4.9
2017-Jun-21 10:56N 53°32' E 004°36'3 5.0
2017-Jun-21 10:19N 53°35' E 004°38'2 5.2
2017-Jun-21 09:51N 53°37' E 004°39'2 5.2
2017-Jun-21 09:22N 53°39' E 004°41'34 5.0
2017-Jun-21 02:31N 54°12' E 004°54'0 5.4
2017-Jun-21 02:29N 54°13' E 004°54'3 5.4
2017-Jun-21 01:59N 54°15' E 004°52'3 5.3
2017-Jun-21 01:29N 54°17' E 004°49'3 5.3
2017-Jun-21 00:55N 54°19' E 004°45'20 0.7
2017-Jun-19 17:59N 54°38' E 004°36'0 0.6
2017-Jun-19 17:30N 54°38' E 004°35'0 0.6
2017-Jun-19 17:00N 54°38' E 004°35'0 0.7
2017-Jun-19 16:30N 54°38' E 004°35'0 0.8
2017-Jun-19 15:58N 54°37' E 004°34'0 0.7
2017-Jun-19 15:28N 54°37' E 004°33'1 0.7
2017-Jun-19 14:42N 54°37' E 004°33'0 0.8
2017-Jun-19 14:29N 54°37' E 004°33'1 0.7
2017-Jun-19 13:24N 54°36' E 004°32'0 0.6
2017-Jun-19 12:50N 54°36' E 004°32'0 0.4
2017-Jun-19 12:29N 54°35' E 004°32'0 0.4
2017-Jun-19 11:45N 54°35' E 004°32'13 0.3
2017-Jun-17 16:54N 54°22' E 004°29'5 1.1
2017-Jun-17 12:26N 54°20' E 004°37'1 3.0
2017-Jun-17 11:59N 54°21' E 004°38'2 3.2
2017-Jun-17 11:16N 54°23' E 004°40'1 2.6
2017-Jun-17 10:46N 54°24' E 004°41'1 2.3
2017-Jun-17 10:29N 54°25' E 004°42'1 2.1
2017-Jun-17 09:59N 54°26' E 004°43'119 3.0
2017-Jun-15 17:54N 56°08' E 006°29'3 2.1
2017-Jun-15 16:39N 56°10' E 006°33'1 3.5
2017-Jun-15 16:29N 56°10' E 006°34'2 3.7
2017-Jun-15 16:01N 56°11' E 006°36'2 4.0
2017-Jun-15 15:30N 56°13' E 006°38'2 3.8
2017-Jun-15 15:00N 56°15' E 006°40'2 3.9
2017-Jun-15 14:27N 56°17' E 006°42'5 5.4
2017-Jun-15 13:29N 56°21' E 006°47'3 5.8
2017-Jun-15 12:56N 56°23' E 006°50'2 5.1
2017-Jun-15 12:27N 56°25' E 006°54'3 5.3
2017-Jun-15 11:53N 56°26' E 006°58'22 0.9
2017-Jun-14 12:13N 56°47' E 007°12'0 0.5
2017-Jun-14 11:59N 56°47' E 007°12'0 0.5
2017-Jun-14 11:23N 56°47' E 007°11'0 0.6
2017-Jun-14 11:00N 56°47' E 007°11'0 0.6
2017-Jun-14 10:30N 56°47' E 007°10'0 0.5
2017-Jun-14 09:59N 56°47' E 007°10'80 4.8
2017-Jun-13 17:10N 57°52' E 008°37'2 5.4
2017-Jun-13 16:50N 57°53' E 008°39'2 5.2
2017-Jun-13 16:30N 57°55' E 008°40'2 4.9
2017-Jun-13 16:00N 57°57' E 008°43'2 4.8
2017-Jun-13 15:30N 57°59' E 008°45'2 3.9
2017-Jun-13 15:00N 58°01' E 008°47'4 3.7
2017-Jun-13 14:00N 58°03' E 008°52'2 3.8
2017-Jun-13 13:30N 58°05' E 008°54'2 3.7
2017-Jun-13 12:59N 58°06' E 008°56'2 3.9
2017-Jun-13 12:30N 58°08' E 008°58'2 4.3
2017-Jun-13 12:00N 58°09' E 009°01'2 4.5
2017-Jun-13 11:29N 58°11' E 009°04'28 5.2
2017-Jun-13 06:09N 58°32' E 009°40'1 5.4
2017-Jun-13 06:00N 58°32' E 009°41'2 4.8
2017-Jun-13 05:31N 58°34' E 009°44'2 3.1
2017-Jun-13 04:53N 58°34' E 009°48'1 3.4
2017-Jun-13 04:27N 58°33' E 009°49'2 3.2
2017-Jun-13 03:55N 58°32' E 009°51'1 3.3
2017-Jun-13 03:30N 58°30' E 009°52'2 3.2
2017-Jun-13 03:00N 58°29' E 009°53'2 3.1
2017-Jun-13 02:23N 58°27' E 009°54'1 3.7
2017-Jun-13 02:01N 58°26' E 009°55'2 4.7
2017-Jun-13 01:30N 58°24' E 009°58'  

Dump ship's entire track history